Time;durP1;ratioP1;P1;durP2;ratioP2;P2;SDS_P1;SDS_P2;PMS_P1;PMS_P2;Temp;Humidity;BMP_temperature;BMP_pressure;BME280_temperature;BME280_humidity;BME280_pressure;Samples;Min_cycle;Max_cycle;Signal;HPM_P1;HPM_P2
2022/01/30 00:00:15;;;;;;;35.53;6.35;;;7.20;99.90;;;;;;5042516;28;20210;-68
2022/01/30 00:02:43;;;;;;;35.95;7.05;;;7.20;99.90;;;;;;5041640;28;20216;-69
2022/01/30 00:05:12;;;;;;;26.02;7.18;;;7.10;99.90;;;;;;5041756;28;20974;-67
2022/01/30 00:07:41;;;;;;;27.40;6.65;;;7.00;99.90;;;;;;5041575;28;20884;-68
2022/01/30 00:10:12;;;;;;;28.23;6.55;;;6.80;99.90;;;;;;5038752;28;20251;-68
2022/01/30 00:12:46;;;;;;;22.48;7.10;;;6.70;99.90;;;;;;5041040;28;20209;-67
2022/01/30 00:15:15;;;;;;;39.08;7.10;;;6.60;99.90;;;;;;5039446;28;20198;-68
2022/01/30 00:17:47;;;;;;;27.33;6.70;;;6.70;99.90;;;;;;5040120;28;20221;-68
2022/01/30 00:20:20;;;;;;;18.52;6.15;;;6.80;99.90;;;;;;5038523;28;20208;-68
2022/01/30 00:22:56;;;;;;;30.00;7.57;;;6.90;99.90;;;;;;5040824;28;20216;-68
2022/01/30 00:25:34;;;;;;;32.50;6.22;;;6.90;99.90;;;;;;5040603;28;20660;-66
2022/01/30 00:28:06;;;;;;;18.30;5.95;;;6.90;99.90;;;;;;5039199;28;20232;-67
2022/01/30 00:30:35;;;;;;;32.47;6.30;;;6.90;99.90;;;;;;5040463;28;20300;-68
2022/01/30 00:33:04;;;;;;;29.83;5.72;;;6.90;99.90;;;;;;5039681;28;20214;-72
2022/01/30 00:35:36;;;;;;;28.40;7.57;;;6.80;99.90;;;;;;5041186;28;20347;-72
2022/01/30 00:38:10;;;;;;;22.48;6.00;;;6.70;99.90;;;;;;5040893;28;20222;-72
2022/01/30 00:40:38;;;;;;;50.63;8.50;;;6.60;99.90;;;;;;5040590;28;20683;-73
2022/01/30 00:43:07;;;;;;;24.77;6.47;;;6.40;99.90;;;;;;5040104;28;20641;-72
2022/01/30 00:45:36;;;;;;;45.20;7.85;;;6.10;99.90;;;;;;5040200;28;20201;-72
2022/01/30 00:48:05;;;;;;;27.70;6.60;;;5.70;99.90;;;;;;5039754;28;20233;-72
2022/01/30 00:50:33;;;;;;;35.53;6.68;;;5.50;99.90;;;;;;5039214;28;20210;-73
2022/01/30 00:53:01;;;;;;;26.15;7.07;;;5.30;99.90;;;;;;5039110;28;20206;-73
2022/01/30 00:55:31;;;;;;;27.27;5.53;;;5.00;99.90;;;;;;5038988;28;20206;-73
2022/01/30 00:58:00;;;;;;;29.40;8.73;;;4.90;99.90;;;;;;5038266;28;20244;-73
2022/01/30 01:00:29;;;;;;;23.00;6.40;;;4.80;99.90;;;;;;5039443;28;20288;-74
2022/01/30 01:02:57;;;;;;;26.70;7.72;;;4.80;99.90;;;;;;5038540;28;20202;-75
2022/01/30 01:05:25;;;;;;;39.88;7.75;;;4.80;99.90;;;;;;5039113;28;20440;-73
2022/01/30 01:07:56;;;;;;;29.38;6.97;;;4.90;99.90;;;;;;5039146;28;20222;-73
2022/01/30 01:10:32;;;;;;;31.48;7.35;;;4.80;99.90;;;;;;5038451;28;20255;-74
2022/01/30 01:13:13;;;;;;;32.75;7.95;;;4.80;99.90;;;;;;5038651;28;20202;-74
2022/01/30 01:24:03;;;;;;;14.85;4.47;;;4.50;99.90;;;;;;5038293;28;20261;-74
2022/01/30 01:26:32;;;;;;;22.08;5.45;;;4.70;99.90;;;;;;5038331;28;20593;-74
2022/01/30 01:29:01;;;;;;;27.08;5.70;;;4.80;99.90;;;;;;5039107;28;20283;-73
2022/01/30 01:31:29;;;;;;;25.33;5.88;;;4.90;99.90;;;;;;5055825;28;20201;-72
2022/01/30 01:36:45;;;;;;;21.83;6.20;;;5.00;99.90;;;;;;5037136;28;20602;-74
2022/01/30 01:39:12;;;;;;;23.75;7.38;;;5.10;99.90;;;;;;5039518;28;20569;-73
2022/01/30 01:41:40;;;;;;;19.65;5.53;;;5.10;99.90;;;;;;5038727;28;20677;-74
2022/01/30 01:44:16;;;;;;;21.45;6.90;;;5.20;99.90;;;;;;5038433;28;20680;-74
2022/01/30 01:46:46;;;;;;;24.92;5.65;;;5.20;99.90;;;;;;5038053;28;20211;-74
2022/01/30 01:49:20;;;;;;;23.77;4.78;;;5.30;99.90;;;;;;5038869;28;20453;-72
2022/01/30 01:52:00;;;;;;;23.00;5.10;;;5.40;99.90;;;;;;5038090;28;20197;-74
2022/01/30 01:54:28;;;;;;;29.13;5.70;;;5.50;99.90;;;;;;5038234;28;20470;-73
2022/01/30 01:56:58;;;;;;;16.23;4.30;;;5.70;99.90;;;;;;5038472;28;20619;-75
2022/01/30 01:59:27;;;;;;;18.50;4.55;;;5.70;99.90;;;;;;5038305;28;20427;-74
2022/01/30 02:01:58;;;;;;;18.23;6.68;;;5.70;99.90;;;;;;5038901;28;20568;-75
2022/01/30 02:04:27;;;;;;;24.40;5.13;;;5.80;99.90;;;;;;5037629;28;20581;-76
2022/01/30 02:07:09;;;;;;;25.48;8.93;;;5.80;99.90;;;;;;5038587;28;20713;-75
2022/01/30 02:09:38;;;;;;;26.30;6.45;;;5.80;99.90;;;;;;5038549;28;20224;-71
2022/01/30 02:12:14;;;;;;;23.60;6.18;;;5.80;99.90;;;;;;5038271;28;20212;-72
2022/01/30 02:14:45;;;;;;;38.88;8.10;;;5.90;99.90;;;;;;5037862;28;20225;-73
2022/01/30 02:25:39;;;;;;;22.17;5.25;;;6.00;99.90;;;;;;5038351;28;20197;-73
2022/01/30 02:28:11;;;;;;;23.88;5.45;;;5.90;99.90;;;;;;5038865;28;20221;-73
2022/01/30 02:30:44;;;;;;;29.02;5.65;;;5.80;99.90;;;;;;5039112;28;20826;-72
2022/01/30 02:33:12;;;;;;;27.55;6.22;;;5.80;99.90;;;;;;5039245;28;20295;-74
2022/01/30 02:35:40;;;;;;;36.63;7.10;;;5.70;99.90;;;;;;5040031;28;20225;-74
2022/01/30 02:38:09;;;;;;;26.55;5.80;;;5.60;99.90;;;;;;5040327;28;20290;-74
2022/01/30 02:40:41;;;;;;;26.90;6.88;;;5.50;99.90;;;;;;5043729;28;20748;-74
2022/01/30 02:43:09;;;;;;;19.92;6.35;;;5.50;99.90;;;;;;5043054;28;20212;-74
2022/01/30 02:45:44;;;;;;;28.98;6.53;;;5.40;99.90;;;;;;5042413;28;20194;-73
2022/01/30 02:48:17;;;;;;;24.67;5.68;;;5.40;99.90;;;;;;5042373;28;20913;-73
2022/01/30 02:50:55;;;;;;;27.50;6.10;;;5.40;99.90;;;;;;5042750;28;20206;-74
2022/01/30 02:53:31;;;;;;;37.45;7.28;;;5.40;99.90;;;;;;5042741;28;20202;-74
2022/01/30 02:55:59;;;;;;;22.40;5.95;;;5.60;99.90;;;;;;5042316;28;20233;-73
2022/01/30 02:58:27;;;;;;;29.63;8.70;;;5.70;99.90;;;;;;5042049;28;20222;-72
2022/01/30 03:00:54;;;;;;;16.70;5.57;;;5.70;99.90;;;;;;5042139;28;20206;-71
2022/01/30 03:03:23;;;;;;;20.88;6.82;;;5.70;99.90;;;;;;5044665;28;20209;-71
2022/01/30 03:05:51;;;;;;;26.42;6.32;;;5.70;99.90;;;;;;5051493;28;20619;-71
2022/01/30 03:08:19;;;;;;;30.63;4.78;;;5.80;99.90;;;;;;5050828;28;20743;-71
2022/01/30 03:10:48;;;;;;;25.60;6.05;;;5.80;99.90;;;;;;5051050;28;20198;-71
2022/01/30 03:13:16;;;;;;;19.70;5.75;;;6.00;99.90;;;;;;5054159;28;20224;-72
2022/01/30 03:15:43;;;;;;;23.80;6.20;;;6.10;99.90;;;;;;5056776;28;20586;-72
2022/01/30 03:18:11;;;;;;;26.50;6.35;;;6.10;99.90;;;;;;5041352;28;20735;-72
2022/01/30 03:20:41;;;;;;;23.15;6.63;;;6.20;99.90;;;;;;5042248;28;20436;-75
2022/01/30 03:23:09;;;;;;;27.88;7.00;;;6.10;99.90;;;;;;5042756;28;20285;-73
2022/01/30 03:25:37;;;;;;;21.10;5.60;;;6.00;99.90;;;;;;5042695;28;20458;-73
2022/01/30 03:28:07;;;;;;;24.90;6.03;;;5.90;99.90;;;;;;5040659;28;20225;-73
2022/01/30 03:30:36;;;;;;;31.15;5.53;;;5.90;99.90;;;;;;5041349;28;20201;-72
2022/01/30 03:33:04;;;;;;;23.58;6.82;;;5.90;99.90;;;;;;5040586;28;20201;-72
2022/01/30 03:35:31;;;;;;;24.50;6.43;;;5.90;99.90;;;;;;5040714;28;20360;-72
2022/01/30 03:37:59;;;;;;;18.15;4.20;;;6.00;99.90;;;;;;5040482;28;20232;-73
2022/01/30 03:40:27;;;;;;;22.33;7.60;;;6.00;99.90;;;;;;5041201;28;20328;-72
2022/01/30 03:42:56;;;;;;;27.00;7.43;;;6.10;99.90;;;;;;5041672;28;20739;-72
2022/01/30 03:45:25;;;;;;;25.45;6.30;;;6.20;99.90;;;;;;5042136;28;20188;-73
2022/01/30 03:47:55;;;;;;;21.92;5.25;;;6.20;99.90;;;;;;5040951;28;20815;-72
2022/01/30 03:50:24;;;;;;;20.30;5.65;;;6.30;99.90;;;;;;5043343;28;20201;-73
2022/01/30 03:52:54;;;;;;;21.33;5.03;;;6.30;99.90;;;;;;5041613;28;20280;-72
2022/01/30 03:55:22;;;;;;;23.27;6.93;;;6.30;99.90;;;;;;5045138;28;20240;-73
2022/01/30 03:57:51;;;;;;;22.95;6.22;;;6.30;99.90;;;;;;5069432;28;20285;-72
2022/01/30 04:00:19;;;;;;;21.75;6.60;;;6.20;99.90;;;;;;5049679;28;20794;-73
2022/01/30 04:02:48;;;;;;;33.10;7.65;;;6.00;99.90;;;;;;5040896;28;20208;-72
2022/01/30 04:05:16;;;;;;;24.05;5.75;;;6.00;99.90;;;;;;5041083;28;20256;-72
2022/01/30 04:07:46;;;;;;;24.13;7.15;;;6.00;99.90;;;;;;5041625;28;20228;-72
2022/01/30 04:10:15;;;;;;;36.63;7.53;;;6.00;99.90;;;;;;5040962;28;20201;-74
2022/01/30 04:12:43;;;;;;;22.05;6.05;;;6.00;99.90;;;;;;5041347;28;20210;-73
2022/01/30 04:15:12;;;;;;;16.30;4.63;;;5.90;99.90;;;;;;5040700;28;20236;-73
2022/01/30 04:17:40;;;;;;;21.08;6.15;;;5.90;99.90;;;;;;5041299;28;20217;-73
2022/01/30 04:20:10;;;;;;;23.10;6.40;;;5.90;99.90;;;;;;5040928;28;20209;-72
2022/01/30 04:22:38;;;;;;;18.95;6.20;;;6.00;99.90;;;;;;5040615;28;20240;-72
2022/01/30 04:25:07;;;;;;;19.88;6.03;;;6.10;99.90;;;;;;5039391;28;20198;-71
2022/01/30 04:27:35;;;;;;;25.13;6.43;;;6.10;99.90;;;;;;5039173;28;20312;-71
2022/01/30 04:30:03;;;;;;;29.98;6.60;;;6.10;99.90;;;;;;5039423;28;20197;-72
2022/01/30 04:32:36;;;;;;;31.35;6.80;;;6.10;99.90;;;;;;5039809;28;20208;-71
2022/01/30 04:35:11;;;;;;;28.38;6.82;;;6.20;99.90;;;;;;5039776;28;20447;-70
2022/01/30 04:37:54;;;;;;;16.35;6.88;;;6.20;99.90;;;;;;5039060;28;20221;-72
2022/01/30 04:40:45;;;;;;;25.85;6.38;;;6.30;99.90;;;;;;5039595;28;20205;-71
2022/01/30 04:57:22;;;;;;;26.17;5.47;;;6.40;99.90;;;;;;5028295;28;20230;-72
2022/01/30 05:00:06;;;;;;;17.42;4.90;;;6.50;99.90;;;;;;5039923;28;20209;-72
2022/01/30 05:02:51;;;;;;;18.05;5.20;;;6.40;99.90;;;;;;5039371;28;20198;-71
2022/01/30 05:05:44;;;;;;;23.42;5.05;;;6.30;99.90;;;;;;5038803;28;20735;-71
2022/01/30 05:08:12;;;;;;;25.35;4.60;;;6.20;99.90;;;;;;5040554;28;20222;-70
2022/01/30 05:10:42;;;;;;;23.02;5.72;;;6.20;99.90;;;;;;5040307;28;20197;-70
2022/01/30 05:13:14;;;;;;;21.90;6.20;;;6.10;99.90;;;;;;5039988;28;20212;-71
2022/01/30 05:15:43;;;;;;;29.60;5.20;;;6.10;99.90;;;;;;5039755;28;20217;-71
2022/01/30 05:18:17;;;;;;;27.63;5.90;;;6.10;99.90;;;;;;5040027;28;20229;-70
2022/01/30 05:20:45;;;;;;;25.27;7.03;;;6.10;99.90;;;;;;5040008;28;20205;-71
2022/01/30 05:23:13;;;;;;;26.33;6.03;;;6.20;99.90;;;;;;5039522;28;20204;-73
2022/01/30 05:25:43;;;;;;;28.35;6.60;;;6.20;99.90;;;;;;5039476;28;20200;-73
2022/01/30 05:28:12;;;;;;;42.35;7.78;;;6.10;99.90;;;;;;5039333;28;20226;-72
2022/01/30 05:30:40;;;;;;;28.20;6.18;;;6.00;99.90;;;;;;5039524;28;20198;-72
2022/01/30 05:33:09;;;;;;;27.60;6.38;;;6.00;99.90;;;;;;5038912;28;20201;-72
2022/01/30 05:35:37;;;;;;;24.95;6.75;;;5.90;99.90;;;;;;5039069;28;20204;-70
2022/01/30 05:38:06;;;;;;;26.80;6.30;;;5.80;99.90;;;;;;5039204;28;20217;-69
2022/01/30 05:40:36;;;;;;;22.08;5.35;;;5.90;99.90;;;;;;5041453;28;20211;-70
2022/01/30 05:43:06;;;;;;;20.38;5.68;;;5.90;99.90;;;;;;5038509;28;20212;-70
2022/01/30 05:45:38;;;;;;;25.00;5.80;;;5.90;99.90;;;;;;5039173;28;20205;-70
2022/01/30 05:48:10;;;;;;;27.70;6.95;;;5.90;99.90;;;;;;5039787;28;20229;-70
2022/01/30 05:50:39;;;;;;;26.63;5.50;;;6.00;99.90;;;;;;5039371;28;20198;-70
2022/01/30 05:53:06;;;;;;;24.95;5.88;;;6.00;99.90;;;;;;5039395;28;20197;-70
2022/01/30 05:55:34;;;;;;;19.40;7.05;;;5.90;99.90;;;;;;5039769;28;20209;-70
2022/01/30 05:58:02;;;;;;;32.90;7.85;;;5.90;99.90;;;;;;5039557;28;20228;-70
2022/01/30 06:00:31;;;;;;;41.65;6.72;;;5.80;99.90;;;;;;5039030;28;20201;-70
2022/01/30 06:02:59;;;;;;;33.20;7.70;;;5.80;99.90;;;;;;5039717;28;20203;-71
2022/01/30 06:05:27;;;;;;;27.88;7.00;;;5.70;99.90;;;;;;5038728;28;20217;-70
2022/01/30 06:07:57;;;;;;;22.55;6.22;;;5.70;99.90;;;;;;5038934;28;20513;-72
2022/01/30 06:10:26;;;;;;;23.92;8.85;;;5.70;99.90;;;;;;5039320;28;20557;-69
2022/01/30 06:12:54;;;;;;;15.07;5.63;;;5.80;99.90;;;;;;5040776;28;20469;-69
2022/01/30 06:15:22;;;;;;;23.63;6.60;;;5.90;99.90;;;;;;5042888;28;20459;-70
2022/01/30 06:17:51;;;;;;;18.10;5.18;;;5.90;99.90;;;;;;5042780;28;20235;-70
2022/01/30 06:20:19;;;;;;;25.50;7.68;;;6.00;99.90;;;;;;5043077;28;20204;-72
2022/01/30 06:22:47;;;;;;;14.82;4.55;;;5.90;99.90;;;;;;5052238;28;20232;-70
2022/01/30 06:25:15;;;;;;;30.63;7.05;;;6.00;99.90;;;;;;5058222;28;20205;-68
2022/01/30 06:27:43;;;;;;;28.10;6.68;;;5.90;99.90;;;;;;5046739;28;20642;-70
2022/01/30 06:30:12;;;;;;;35.95;5.97;;;5.90;99.90;;;;;;5044226;28;20209;-68
2022/01/30 06:32:40;;;;;;;19.65;5.30;;;5.90;99.90;;;;;;5042817;28;20197;-70
2022/01/30 06:35:10;;;;;;;23.33;4.78;;;5.90;99.90;;;;;;5042278;28;20205;-70
2022/01/30 06:37:37;;;;;;;26.85;6.00;;;5.80;99.90;;;;;;5042591;28;20469;-71
2022/01/30 06:40:06;;;;;;;25.83;4.75;;;5.80;99.90;;;;;;5043735;28;20212;-71
2022/01/30 06:42:34;;;;;;;23.80;4.50;;;5.80;99.90;;;;;;5043186;28;20296;-72
2022/01/30 06:45:02;;;;;;;28.65;6.35;;;5.90;99.90;;;;;;5042420;28;20229;-71
2022/01/30 06:47:30;;;;;;;28.13;5.45;;;5.80;99.90;;;;;;5042987;28;20236;-73
2022/01/30 06:49:58;;;;;;;24.73;7.07;;;5.90;99.90;;;;;;5042764;28;20311;-72
2022/01/30 06:52:27;;;;;;;36.70;5.93;;;6.00;99.90;;;;;;5043586;28;20201;-74
2022/01/30 06:54:55;;;;;;;22.30;5.38;;;6.00;99.90;;;;;;5042084;28;20206;-74
2022/01/30 06:57:23;;;;;;;23.77;4.90;;;5.90;99.90;;;;;;5041687;28;20607;-73
2022/01/30 06:59:51;;;;;;;24.25;5.90;;;5.90;99.90;;;;;;5042119;28;20206;-72
2022/01/30 07:02:18;;;;;;;29.60;6.80;;;5.80;99.90;;;;;;5039495;28;20596;-70
2022/01/30 07:04:48;;;;;;;17.40;4.72;;;5.80;99.90;;;;;;5040615;28;20202;-73
2022/01/30 07:07:15;;;;;;;21.63;5.28;;;5.80;99.90;;;;;;5040552;28;20635;-71
2022/01/30 07:09:44;;;;;;;20.83;6.30;;;5.80;99.90;;;;;;5041170;28;20261;-70
2022/01/30 07:12:12;;;;;;;34.13;7.75;;;5.70;99.90;;;;;;5041580;28;20607;-71
2022/01/30 07:14:40;;;;;;;33.70;7.50;;;5.80;99.90;;;;;;5040640;28;20208;-72
2022/01/30 07:17:08;;;;;;;30.00;7.25;;;5.80;99.90;;;;;;5040994;28;20612;-70
2022/01/30 07:19:35;;;;;;;25.63;5.90;;;5.80;99.90;;;;;;5041169;28;20451;-70
2022/01/30 07:22:04;;;;;;;27.10;6.95;;;5.70;99.90;;;;;;5041263;28;20366;-71
2022/01/30 07:24:32;;;;;;;28.33;7.28;;;5.70;99.90;;;;;;5040049;28;20222;-68
2022/01/30 07:27:01;;;;;;;21.60;6.18;;;5.80;99.90;;;;;;5041588;28;20724;-71
2022/01/30 07:29:28;;;;;;;25.58;6.60;;;5.80;99.90;;;;;;5041808;28;20229;-69
2022/01/30 07:31:56;;;;;;;26.50;5.97;;;5.70;99.90;;;;;;5042096;28;20688;-68
2022/01/30 07:34:24;;;;;;;29.35;7.05;;;5.80;99.90;;;;;;5040786;28;20204;-69
2022/01/30 07:36:56;;;;;;;34.70;7.80;;;5.70;99.90;;;;;;5040737;28;20221;-69
2022/01/30 07:39:27;;;;;;;33.63;8.65;;;5.80;99.90;;;;;;5041617;28;20217;-67
2022/01/30 07:41:55;;;;;;;31.00;7.95;;;5.90;99.90;;;;;;5041475;28;20202;-67
2022/01/30 07:44:24;;;;;;;30.90;7.63;;;5.90;99.90;;;;;;5041519;28;20206;-68
2022/01/30 07:46:52;;;;;;;35.35;8.52;;;6.00;99.90;;;;;;5044714;28;20834;-68
2022/01/30 07:49:20;;;;;;;35.83;7.15;;;6.10;99.90;;;;;;5045037;28;20219;-69
2022/01/30 07:51:48;;;;;;;32.42;8.27;;;6.10;99.90;;;;;;5044707;28;20206;-69
2022/01/30 07:54:16;;;;;;;34.28;7.78;;;6.10;99.90;;;;;;5055220;28;20276;-69
2022/01/30 07:56:43;;;;;;;36.88;9.23;;;6.20;99.90;;;;;;5056113;28;20742;-69
2022/01/30 07:59:11;;;;;;;41.97;8.63;;;6.30;99.90;;;;;;5057941;28;20213;-69
2022/01/30 08:01:40;;;;;;;24.30;7.55;;;6.30;99.90;;;;;;5053790;28;20321;-69
2022/01/30 08:04:08;;;;;;;31.63;9.07;;;6.40;99.90;;;;;;5052934;28;20213;-69
2022/01/30 08:06:37;;;;;;;29.33;6.80;;;6.40;99.90;;;;;;5048237;28;20210;-68
2022/01/30 08:09:05;;;;;;;23.73;8.95;;;6.40;99.90;;;;;;5042564;28;20198;-67
2022/01/30 08:11:32;;;;;;;31.48;8.85;;;6.50;99.90;;;;;;5041488;28;20197;-68
2022/01/30 08:14:00;;;;;;;32.17;7.05;;;6.40;99.90;;;;;;5041072;28;20437;-68
2022/01/30 08:16:28;;;;;;;40.53;8.80;;;6.50;99.90;;;;;;5040852;28;20259;-68
2022/01/30 08:18:57;;;;;;;27.48;8.00;;;6.50;99.90;;;;;;5040251;28;20283;-69
2022/01/30 08:21:25;;;;;;;20.73;6.13;;;6.50;99.90;;;;;;5041382;28;20208;-69
2022/01/30 08:23:53;;;;;;;44.13;10.68;;;6.50;99.90;;;;;;5041694;28;20202;-69
2022/01/30 08:26:21;;;;;;;29.50;7.05;;;6.50;99.90;;;;;;5041551;28;20206;-72
2022/01/30 08:28:49;;;;;;;36.33;7.72;;;6.60;99.90;;;;;;5040995;28;20231;-70
2022/01/30 08:31:16;;;;;;;28.45;8.18;;;6.60;99.90;;;;;;5042434;28;20198;-72
2022/01/30 08:33:45;;;;;;;26.25;6.70;;;6.50;99.90;;;;;;5041945;28;20201;-71
2022/01/30 08:36:14;;;;;;;31.40;8.90;;;6.50;99.90;;;;;;5040779;28;20206;-72
2022/01/30 08:38:42;;;;;;;34.30;7.38;;;6.50;99.90;;;;;;5043347;28;20312;-71
2022/01/30 08:41:10;;;;;;;33.13;8.18;;;6.50;99.90;;;;;;5045151;28;20800;-73
2022/01/30 08:43:38;;;;;;;27.17;6.40;;;6.60;99.90;;;;;;5049095;28;20251;-71
2022/01/30 08:46:06;;;;;;;24.40;5.97;;;6.60;99.90;;;;;;5042672;28;20205;-72
2022/01/30 08:48:34;;;;;;;24.48;7.90;;;6.60;99.90;;;;;;5047427;28;20739;-71
2022/01/30 08:51:02;;;;;;;37.95;9.57;;;6.60;99.90;;;;;;5042526;28;20201;-72
2022/01/30 08:53:32;;;;;;;24.60;6.80;;;6.60;99.90;;;;;;5040950;28;20304;-71
2022/01/30 08:55:59;;;;;;;32.22;8.27;;;6.60;99.90;;;;;;5040248;28;20206;-71
2022/01/30 08:58:29;;;;;;;33.80;7.10;;;6.70;99.90;;;;;;5040211;28;20225;-72
2022/01/30 09:00:58;;;;;;;26.40;8.32;;;6.70;99.90;;;;;;5039233;28;20216;-71
2022/01/30 09:03:26;;;;;;;30.98;6.30;;;6.60;99.90;;;;;;5039390;28;20202;-71
2022/01/30 09:05:53;;;;;;;25.98;5.53;;;6.60;99.90;;;;;;5039155;28;20209;-71
2022/01/30 09:08:21;;;;;;;35.70;8.10;;;6.60;99.90;;;;;;5039125;28;20268;-72
2022/01/30 09:10:50;;;;;;;33.80;6.97;;;6.60;99.90;;;;;;5039021;28;20193;-71
2022/01/30 09:13:18;;;;;;;27.23;6.28;;;6.60;99.90;;;;;;5039327;28;20202;-71
2022/01/30 09:15:46;;;;;;;33.75;7.20;;;6.70;99.90;;;;;;5038799;28;20210;-68
2022/01/30 09:18:17;;;;;;;26.65;6.82;;;6.60;99.90;;;;;;5038711;28;20260;-70
2022/01/30 09:20:44;;;;;;;27.20;6.18;;;6.70;99.90;;;;;;5039160;28;20581;-71
2022/01/30 09:23:13;;;;;;;29.27;7.97;;;6.70;99.90;;;;;;5038577;28;20198;-67
2022/01/30 09:25:46;;;;;;;37.72;7.68;;;6.70;99.90;;;;;;5038107;28;20589;-69
2022/01/30 09:28:16;;;;;;;20.27;6.78;;;6.70;99.90;;;;;;5039104;28;20209;-70
2022/01/30 09:30:44;;;;;;;24.33;8.75;;;6.70;99.90;;;;;;5039191;28;20201;-74
2022/01/30 09:33:12;;;;;;;23.77;6.45;;;6.70;99.90;;;;;;5038410;28;20266;-73
2022/01/30 09:35:40;;;;;;;26.90;6.97;;;6.70;99.90;;;;;;5039447;28;20206;-68
2022/01/30 09:38:08;;;;;;;24.67;6.00;;;6.80;99.90;;;;;;5039331;28;20641;-67
2022/01/30 09:40:35;;;;;;;30.98;6.55;;;6.80;99.90;;;;;;5039101;28;20213;-67
2022/01/30 09:43:04;;;;;;;23.40;7.30;;;6.90;99.90;;;;;;5038961;28;20210;-68
2022/01/30 09:45:33;;;;;;;30.88;6.85;;;6.90;99.90;;;;;;5039652;28;20469;-66
2022/01/30 09:48:01;;;;;;;35.50;6.40;;;6.90;99.90;;;;;;5039419;28;20225;-67
2022/01/30 09:50:30;;;;;;;23.77;7.75;;;6.90;99.90;;;;;;5038880;28;20231;-68
2022/01/30 09:52:58;;;;;;;33.53;8.70;;;6.90;99.90;;;;;;5038672;28;20206;-68
2022/01/30 09:55:26;;;;;;;31.70;6.50;;;7.00;99.90;;;;;;5038883;28;20296;-66
2022/01/30 09:57:54;;;;;;;22.60;7.35;;;7.00;99.90;;;;;;5038421;28;20236;-66
2022/01/30 10:00:22;;;;;;;38.28;9.63;;;7.10;99.90;;;;;;5039117;28;20308;-66
2022/01/30 10:02:51;;;;;;;34.10;7.00;;;7.10;99.90;;;;;;5038918;28;20215;-66
2022/01/30 10:05:19;;;;;;;30.15;7.05;;;7.20;99.90;;;;;;5040796;28;20315;-65
2022/01/30 10:07:51;;;;;;;34.70;7.35;;;7.20;99.90;;;;;;5039467;28;20268;-67
2022/01/30 10:10:23;;;;;;;31.27;7.78;;;7.10;99.90;;;;;;5039218;28;20212;-66
2022/01/30 10:13:03;;;;;;;52.35;8.52;;;7.10;99.90;;;;;;5038775;28;20296;-66
2022/01/30 10:15:47;;;;;;;30.48;7.15;;;7.10;99.90;;;;;;5038113;28;20211;-70
2022/01/30 10:18:19;;;;;;;35.22;9.10;;;7.10;99.90;;;;;;5037961;28;20964;-67
2022/01/30 10:20:51;;;;;;;20.10;6.10;;;7.10;99.90;;;;;;5038836;28;20266;-69
2022/01/30 10:23:19;;;;;;;28.30;7.00;;;7.10;99.90;;;;;;5037606;28;20212;-67
2022/01/30 10:25:53;;;;;;;18.88;6.10;;;7.20;99.90;;;;;;5039349;28;20240;-66
2022/01/30 10:28:22;;;;;;;41.92;6.60;;;7.20;99.90;;;;;;5039472;28;20299;-66
2022/01/30 10:30:52;;;;;;;27.13;7.80;;;7.10;99.90;;;;;;5042400;28;20287;-65
2022/01/30 10:33:23;;;;;;;28.33;6.18;;;7.00;99.90;;;;;;5043470;28;20252;-66
2022/01/30 10:35:53;;;;;;;32.95;6.38;;;7.10;99.90;;;;;;5039543;28;20202;-68
2022/01/30 10:38:23;;;;;;;28.90;6.60;;;7.10;99.90;;;;;;5038798;28;20471;-67
2022/01/30 10:41:00;;;;;;;23.77;7.57;;;7.20;99.90;;;;;;5039255;28;20224;-69
2022/01/30 10:43:50;;;;;;;27.13;6.40;;;7.10;99.90;;;;;;5038798;28;20208;-67
2022/01/30 10:46:19;;;;;;;26.58;7.70;;;7.10;99.90;;;;;;5039841;28;20786;-67
2022/01/30 10:49:02;;;;;;;31.40;10.40;;;7.00;99.90;;;;;;5039176;28;20225;-67
2022/01/30 10:51:32;;;;;;;38.35;7.47;;;6.90;99.90;;;;;;5038768;28;20205;-66
2022/01/30 10:54:06;;;;;;;32.67;8.10;;;6.90;99.90;;;;;;5038620;28;20206;-67
2022/01/30 10:56:36;;;;;;;27.63;7.10;;;6.90;99.90;;;;;;5039663;28;20387;-68
2022/01/30 10:59:06;;;;;;;20.13;5.88;;;7.00;99.90;;;;;;5039506;28;20334;-66
2022/01/30 11:01:34;;;;;;;25.38;7.03;;;7.00;99.90;;;;;;5043261;28;20206;-68
2022/01/30 11:04:04;;;;;;;26.85;6.65;;;6.90;99.90;;;;;;5041944;28;20217;-68
2022/01/30 11:06:39;;;;;;;33.45;8.40;;;7.00;99.90;;;;;;5043199;28;20508;-67
2022/01/30 11:09:11;;;;;;;28.20;6.65;;;7.10;99.90;;;;;;5042532;28;20208;-66
2022/01/30 11:11:43;;;;;;;27.95;7.45;;;7.10;99.90;;;;;;5043227;28;20479;-66
2022/01/30 11:14:20;;;;;;;35.20;6.70;;;7.20;99.90;;;;;;5043183;28;20232;-66
2022/01/30 11:17:07;;;;;;;31.25;8.60;;;7.20;99.90;;;;;;5043393;28;20242;-68
2022/01/30 11:19:38;;;;;;;30.42;7.70;;;7.10;99.90;;;;;;5061560;28;20217;-66
2022/01/30 11:22:08;;;;;;;24.73;7.10;;;7.20;99.90;;;;;;5052796;28;20211;-68
2022/01/30 11:24:47;;;;;;;30.98;7.38;;;7.20;99.90;;;;;;5041850;28;20403;-68
2022/01/30 11:27:16;;;;;;;23.77;7.15;;;7.30;99.90;;;;;;5041944;28;20692;-68
2022/01/30 11:29:45;;;;;;;25.85;6.93;;;7.30;99.90;;;;;;5043464;28;20198;-68
2022/01/30 11:32:13;;;;;;;19.55;5.43;;;7.20;99.90;;;;;;5043805;28;20248;-68
2022/01/30 11:34:44;;;;;;;26.83;7.00;;;7.30;99.90;;;;;;5043278;28;20201;-68
2022/01/30 11:37:14;;;;;;;28.25;6.60;;;7.20;99.90;;;;;;5042738;28;20222;-68
2022/01/30 11:39:44;;;;;;;30.73;6.30;;;7.20;99.90;;;;;;5041986;28;20217;-68
2022/01/30 11:42:18;;;;;;;21.67;5.35;;;7.20;99.90;;;;;;5042472;28;20205;-68
2022/01/30 11:44:47;;;;;;;30.15;6.93;;;7.30;99.90;;;;;;5041390;28;20213;-68
2022/01/30 11:47:26;;;;;;;34.05;7.07;;;7.40;99.90;;;;;;5041435;28;20279;-69
2022/01/30 11:50:08;;;;;;;29.13;7.03;;;7.50;99.90;;;;;;5041405;28;20218;-67
2022/01/30 11:53:00;;;;;;;20.20;4.97;;;7.50;99.90;;;;;;5040815;28;20205;-68
2022/01/30 11:55:51;;;;;;;32.17;7.18;;;7.40;99.90;;;;;;5041919;28;20624;-68
2022/01/30 11:58:46;;;;;;;22.25;5.63;;;7.30;99.90;;;;;;5040925;28;20386;-68
2022/01/30 12:01:36;;;;;;;22.60;5.35;;;7.20;99.90;;;;;;5040096;28;20198;-66
2022/01/30 12:04:10;;;;;;;26.45;6.30;;;7.20;99.90;;;;;;5041031;28;20205;-66
2022/01/30 12:06:41;;;;;;;22.95;5.68;;;7.20;99.90;;;;;;5040808;28;20212;-66
2022/01/30 12:09:29;;;;;;;22.00;5.45;;;7.20;99.90;;;;;;5040725;28;20599;-66
2022/01/30 12:12:06;;;;;;;39.65;6.82;;;7.20;99.90;;;;;;5040272;28;20454;-67
2022/01/30 12:14:56;;;;;;;30.83;6.93;;;7.30;99.90;;;;;;5041173;28;20202;-66
2022/01/30 12:17:51;;;;;;;27.50;5.47;;;7.30;99.90;;;;;;5041227;28;20221;-66
2022/01/30 12:20:22;;;;;;;22.45;5.50;;;7.30;99.90;;;;;;5040884;28;20328;-65
2022/01/30 12:22:53;;;;;;;16.60;5.05;;;7.20;99.90;;;;;;5040940;28;20688;-65
2022/01/30 12:25:37;;;;;;;20.52;5.40;;;7.20;99.90;;;;;;5040366;28;20201;-65
2022/01/30 12:28:10;;;;;;;20.23;7.47;;;7.20;99.90;;;;;;5039307;28;20236;-66
2022/01/30 12:30:50;;;;;;;23.75;6.60;;;7.10;99.90;;;;;;5040460;28;20267;-66
2022/01/30 12:33:36;;;;;;;22.33;6.32;;;7.00;99.90;;;;;;5040137;28;20700;-66
2022/01/30 12:36:11;;;;;;;33.75;7.00;;;7.00;99.90;;;;;;5039566;28;20206;-65
2022/01/30 12:38:44;;;;;;;21.83;5.72;;;7.00;99.90;;;;;;5040005;28;20671;-67
2022/01/30 12:41:17;;;;;;;28.13;5.75;;;7.00;99.90;;;;;;5039879;28;20217;-66
2022/01/30 12:43:46;;;;;;;24.40;5.68;;;7.00;99.90;;;;;;5039720;28;20206;-66
2022/01/30 12:46:16;;;;;;;26.30;7.28;;;7.10;99.90;;;;;;5049644;28;20275;-76
2022/01/30 12:49:00;;;;;;;27.13;6.85;;;7.10;99.90;;;;;;5051545;28;20411;-72
2022/01/30 12:51:28;;;;;;;23.55;6.30;;;7.20;99.90;;;;;;5044921;28;20202;-63
2022/01/30 12:53:58;;;;;;;22.42;5.15;;;7.20;99.90;;;;;;5051898;28;20846;-66
2022/01/30 12:56:29;;;;;;;20.48;5.40;;;7.20;99.90;;;;;;5052731;28;20284;-68
2022/01/30 12:59:06;;;;;;;19.52;6.18;;;7.30;99.90;;;;;;5043735;28;20224;-64
2022/01/30 13:01:36;;;;;;;23.95;5.35;;;7.20;99.90;;;;;;5041554;28;20229;-63
2022/01/30 13:04:07;;;;;;;17.70;5.63;;;7.20;99.90;;;;;;5041365;28;20239;-67
2022/01/30 13:06:37;;;;;;;15.07;4.38;;;7.20;99.90;;;;;;5044677;28;20205;-66
2022/01/30 13:09:08;;;;;;;18.85;4.50;;;7.30;99.90;;;;;;5042240;28;20186;-66
2022/01/30 13:11:36;;;;;;;21.02;4.90;;;7.30;99.90;;;;;;5041238;28;20178;-65
2022/01/30 13:14:07;;;;;;;25.25;5.25;;;7.30;99.90;;;;;;5040743;28;20204;-65
2022/01/30 13:16:37;;;;;;;17.08;5.38;;;7.30;99.90;;;;;;5041900;28;20208;-66
2022/01/30 13:19:08;;;;;;;20.83;5.10;;;7.40;99.90;;;;;;5041205;28;20202;-66
2022/01/30 13:21:38;;;;;;;15.90;4.47;;;7.40;99.90;;;;;;5040873;28;21014;-66
2022/01/30 13:24:08;;;;;;;17.67;5.50;;;7.40;99.90;;;;;;5041397;28;20882;-67
2022/01/30 13:26:39;;;;;;;21.23;5.85;;;7.30;99.90;;;;;;5041359;28;20307;-66
2022/01/30 13:29:10;;;;;;;32.95;6.40;;;7.30;99.90;;;;;;5040988;28;20399;-65
2022/01/30 13:31:46;;;;;;;30.05;5.40;;;7.20;99.90;;;;;;5040930;28;20193;-73
2022/01/30 13:34:21;;;;;;;28.45;5.93;;;7.20;99.90;;;;;;5040051;28;20288;-65
2022/01/30 13:36:55;;;;;;;19.40;4.60;;;7.20;99.90;;;;;;5039181;28;20533;-64
2022/01/30 13:39:30;;;;;;;15.25;4.47;;;7.20;99.90;;;;;;5036587;28;20427;-66